Time;durP1;ratioP1;P1;durP2;ratioP2;P2;SDS_P1;SDS_P2;PMS_P1;PMS_P2;Temp;Humidity;BMP_temperature;BMP_pressure;BME280_temperature;BME280_humidity;BME280_pressure;Samples;Min_cycle;Max_cycle;Signal;HPM_P1;HPM_P2
2021/10/30 00:01:25;;;;;;;30.15;19.50;;;9.30;99.90;;;;;;5046458;28;20515;-76
2021/10/30 00:03:52;;;;;;;32.10;19.52;;;9.40;99.90;;;;;;5046220;28;20422;-74
2021/10/30 00:06:19;;;;;;;34.28;21.92;;;9.30;99.90;;;;;;5028373;28;20057;-76
2021/10/30 00:08:46;;;;;;;26.50;19.08;;;9.30;99.90;;;;;;5045774;28;20106;-74
2021/10/30 00:11:14;;;;;;;29.80;20.15;;;9.20;99.90;;;;;;5046697;28;20056;-76
2021/10/30 00:13:40;;;;;;;32.92;20.88;;;9.20;99.90;;;;;;5029316;28;20045;-76
2021/10/30 00:16:07;;;;;;;33.10;19.85;;;9.20;99.90;;;;;;5046511;28;20523;-75
2021/10/30 00:18:34;;;;;;;29.83;20.23;;;9.20;99.90;;;;;;5028731;28;20059;-77
2021/10/30 00:21:01;;;;;;;30.90;21.85;;;9.30;99.90;;;;;;5046814;28;20493;-75
2021/10/30 00:23:27;;;;;;;33.15;21.13;;;9.20;99.90;;;;;;5029236;28;20504;-74
2021/10/30 00:25:54;;;;;;;29.83;19.92;;;9.20;99.90;;;;;;5046399;28;20056;-75
2021/10/30 00:28:21;;;;;;;29.35;19.25;;;9.20;99.90;;;;;;5030169;28;20134;-74
2021/10/30 00:30:48;;;;;;;30.08;20.55;;;9.20;99.90;;;;;;5029587;28;20080;-75
2021/10/30 00:33:14;;;;;;;31.63;20.75;;;9.20;99.90;;;;;;5042379;28;20060;-76
2021/10/30 00:35:41;;;;;;;34.03;20.45;;;9.20;99.90;;;;;;5045671;28;20056;-75
2021/10/30 00:38:08;;;;;;;30.80;19.83;;;9.30;99.90;;;;;;5046983;28;20056;-75
2021/10/30 00:40:35;;;;;;;34.15;21.08;;;9.30;99.90;;;;;;5028387;28;20045;-75
2021/10/30 00:43:01;;;;;;;34.63;20.13;;;9.40;99.90;;;;;;5029999;28;20430;-74
2021/10/30 00:45:29;;;;;;;30.08;19.20;;;9.40;99.90;;;;;;5045463;28;20103;-74
2021/10/30 00:47:56;;;;;;;33.15;20.23;;;9.50;99.90;;;;;;5046852;28;20053;-75
2021/10/30 00:50:23;;;;;;;34.55;20.65;;;9.50;99.90;;;;;;5035533;28;20068;-76
2021/10/30 00:52:53;;;;;;;27.38;19.42;;;9.50;99.90;;;;;;5029106;28;20503;-75
2021/10/30 00:55:22;;;;;;;32.05;19.40;;;9.50;99.90;;;;;;5013046;28;20064;-76
2021/10/30 00:57:52;;;;;;;31.85;21.52;;;9.50;99.90;;;;;;5028625;28;20114;-74
2021/10/30 01:00:19;;;;;;;29.58;20.95;;;9.40;99.90;;;;;;5046935;28;20088;-74
2021/10/30 01:02:46;;;;;;;33.63;21.88;;;9.40;99.90;;;;;;5029151;28;20052;-75
2021/10/30 01:05:13;;;;;;;34.30;22.02;;;9.40;99.90;;;;;;4996580;28;20049;-76
2021/10/30 01:07:39;;;;;;;35.60;21.33;;;9.40;99.90;;;;;;5008847;28;20101;-76
2021/10/30 01:10:07;;;;;;;31.85;21.70;;;9.40;99.90;;;;;;5024656;28;20054;-74
2021/10/30 01:12:34;;;;;;;32.70;20.73;;;9.40;99.90;;;;;;5008983;28;20433;-74
2021/10/30 01:15:04;;;;;;;32.53;21.55;;;9.40;99.90;;;;;;5008882;28;20104;-76
2021/10/30 01:17:33;;;;;;;33.30;21.58;;;9.40;99.90;;;;;;5039906;28;20049;-75
2021/10/30 01:19:59;;;;;;;28.65;19.20;;;9.40;99.90;;;;;;5038448;28;20060;-75
2021/10/30 01:22:26;;;;;;;30.77;20.35;;;9.40;99.90;;;;;;5028151;28;20183;-75
2021/10/30 01:24:53;;;;;;;36.58;21.52;;;9.40;99.90;;;;;;5046115;28;20060;-75
2021/10/30 01:27:21;;;;;;;34.13;21.63;;;9.40;99.90;;;;;;5046374;28;20190;-76
2021/10/30 01:29:50;;;;;;;32.28;20.45;;;9.40;99.90;;;;;;5046342;28;20053;-75
2021/10/30 01:32:20;;;;;;;30.85;19.73;;;9.40;99.90;;;;;;5045732;28;20236;-74
2021/10/30 01:34:47;;;;;;;31.20;19.80;;;9.50;99.90;;;;;;5048792;28;20107;-76
2021/10/30 01:37:14;;;;;;;33.25;21.52;;;9.50;99.90;;;;;;5024490;28;20311;-74
2021/10/30 01:39:42;;;;;;;29.85;19.85;;;9.40;99.90;;;;;;5007974;28;20103;-74
2021/10/30 01:42:08;;;;;;;30.83;20.00;;;9.40;99.90;;;;;;5040994;28;20056;-76
2021/10/30 01:44:35;;;;;;;33.75;21.30;;;9.40;99.90;;;;;;5043538;28;20450;-75
2021/10/30 01:47:03;;;;;;;35.17;20.15;;;9.50;99.90;;;;;;5045989;28;20049;-74
2021/10/30 01:49:30;;;;;;;29.92;21.45;;;9.50;99.90;;;;;;5043693;28;20545;-75
2021/10/30 01:51:57;;;;;;;33.08;21.20;;;9.50;99.90;;;;;;5039487;28;20053;-75
2021/10/30 01:54:24;;;;;;;32.53;21.35;;;9.50;99.90;;;;;;5046310;28;20064;-75
2021/10/30 01:56:53;;;;;;;32.40;21.75;;;9.40;99.90;;;;;;5021163;28;20492;-74
2021/10/30 01:59:20;;;;;;;57.28;23.25;;;9.40;99.90;;;;;;5039589;28;20061;-75
2021/10/30 02:01:47;;;;;;;30.60;20.63;;;9.40;99.90;;;;;;5046310;28;20044;-74
2021/10/30 02:04:14;;;;;;;31.67;21.88;;;9.40;99.90;;;;;;5047572;28;20307;-74
2021/10/30 02:06:41;;;;;;;30.60;20.55;;;9.40;99.90;;;;;;5046796;28;20067;-74
2021/10/30 02:09:08;;;;;;;37.50;23.13;;;9.30;99.90;;;;;;5042395;28;20924;-76
2021/10/30 02:11:35;;;;;;;37.83;23.52;;;9.30;99.90;;;;;;5037360;28;20041;-75
2021/10/30 02:14:01;;;;;;;30.02;20.63;;;9.30;99.90;;;;;;5030989;28;20045;-75
2021/10/30 02:16:33;;;;;;;33.08;21.20;;;9.30;99.90;;;;;;5046944;28;20080;-76
2021/10/30 02:19:00;;;;;;;35.55;22.58;;;9.30;99.90;;;;;;5013403;28;20057;-75
2021/10/30 02:21:27;;;;;;;37.40;23.48;;;9.30;99.90;;;;;;5028573;28;20061;-75
2021/10/30 02:23:56;;;;;;;38.53;23.63;;;9.30;99.90;;;;;;5047188;28;20722;-75
2021/10/30 02:26:22;;;;;;;43.42;23.73;;;9.20;99.90;;;;;;5028042;28;20044;-76
2021/10/30 02:28:49;;;;;;;39.55;23.83;;;9.10;99.90;;;;;;5045624;28;20049;-77
2021/10/30 02:31:17;;;;;;;39.40;23.35;;;9.00;99.90;;;;;;5046002;28;20048;-76
2021/10/30 02:33:44;;;;;;;36.03;24.20;;;9.00;99.90;;;;;;5045722;28;20131;-75
2021/10/30 02:36:10;;;;;;;34.72;23.17;;;8.90;99.90;;;;;;5043685;28;20075;-76
2021/10/30 02:38:37;;;;;;;37.30;23.95;;;8.90;99.90;;;;;;5043170;28;20057;-76
2021/10/30 02:41:04;;;;;;;41.85;25.10;;;8.90;99.90;;;;;;4992888;28;20503;-75
2021/10/30 02:43:31;;;;;;;42.67;24.50;;;8.80;99.90;;;;;;5027053;28;20061;-75
2021/10/30 02:45:57;;;;;;;37.05;23.33;;;8.80;99.90;;;;;;5026448;28;20053;-75
2021/10/30 02:48:24;;;;;;;40.38;23.73;;;8.80;99.90;;;;;;5010708;28;20069;-76
2021/10/30 02:50:53;;;;;;;38.83;25.23;;;8.80;99.90;;;;;;5031521;28;20234;-76
2021/10/30 02:53:21;;;;;;;37.72;23.73;;;8.80;99.90;;;;;;5007048;28;20052;-75
2021/10/30 02:55:47;;;;;;;37.00;23.35;;;8.80;99.90;;;;;;5024018;28;20069;-76
2021/10/30 02:58:14;;;;;;;38.10;22.60;;;8.80;99.90;;;;;;5026029;28;20040;-76
2021/10/30 03:00:41;;;;;;;34.47;23.35;;;8.90;99.90;;;;;;5045759;28;20441;-75
2021/10/30 03:03:08;;;;;;;34.97;22.48;;;8.90;99.90;;;;;;5048700;28;20099;-77
2021/10/30 03:05:35;;;;;;;33.13;20.67;;;9.00;99.90;;;;;;5047766;28;20490;-76
2021/10/30 03:08:01;;;;;;;31.15;20.75;;;9.10;99.90;;;;;;5029449;28;20037;-76
2021/10/30 03:10:28;;;;;;;30.73;20.90;;;9.20;99.90;;;;;;5047530;28;20470;-74
2021/10/30 03:12:56;;;;;;;30.95;20.35;;;9.40;99.90;;;;;;5030454;28;20466;-73
2021/10/30 03:15:23;;;;;;;26.25;17.85;;;9.50;99.90;;;;;;5029741;28;20095;-72
2021/10/30 03:17:50;;;;;;;30.10;19.85;;;9.60;99.90;;;;;;5030152;28;20305;-73
2021/10/30 03:20:16;;;;;;;30.17;19.33;;;9.50;99.90;;;;;;5013715;28;20060;-73
2021/10/30 03:22:44;;;;;;;27.52;18.55;;;9.70;99.90;;;;;;5046691;28;20061;-71
2021/10/30 03:25:11;;;;;;;25.85;18.25;;;9.80;99.90;;;;;;5029177;28;20056;-72
2021/10/30 03:27:38;;;;;;;27.88;19.23;;;9.90;99.90;;;;;;5030226;28;20079;-72
2021/10/30 03:30:06;;;;;;;26.10;17.42;;;9.90;99.90;;;;;;5028982;28;20194;-72
2021/10/30 03:32:33;;;;;;;31.35;21.30;;;9.90;99.90;;;;;;5029349;28;20056;-72
2021/10/30 03:35:00;;;;;;;28.65;20.70;;;9.80;99.90;;;;;;5045717;28;20516;-71
2021/10/30 03:37:27;;;;;;;32.78;23.25;;;9.60;99.90;;;;;;5026649;28;20057;-72
2021/10/30 03:39:54;;;;;;;30.85;21.23;;;9.50;99.90;;;;;;5027538;28;20143;-73
2021/10/30 03:42:23;;;;;;;32.00;20.25;;;9.30;99.90;;;;;;5013163;28;20049;-72
2021/10/30 03:44:50;;;;;;;36.55;21.77;;;9.30;99.90;;;;;;5029289;28;20057;-73
2021/10/30 03:47:17;;;;;;;36.83;20.98;;;9.20;99.90;;;;;;5046285;28;20049;-71
2021/10/30 03:49:44;;;;;;;34.67;21.45;;;9.20;99.90;;;;;;5047447;28;20064;-72
2021/10/30 03:52:11;;;;;;;33.78;22.58;;;9.10;99.90;;;;;;5015107;28;20045;-74
2021/10/30 03:54:38;;;;;;;33.00;21.45;;;9.10;99.90;;;;;;5047268;28;20041;-72
2021/10/30 03:57:06;;;;;;;34.40;21.88;;;9.00;99.90;;;;;;5019772;28;20049;-73
2021/10/30 03:59:34;;;;;;;34.08;22.08;;;9.00;99.90;;;;;;5027478;28;20260;-73
2021/10/30 04:02:04;;;;;;;38.30;23.75;;;8.90;99.90;;;;;;5017967;28;20427;-72
2021/10/30 04:04:32;;;;;;;33.05;21.63;;;8.90;99.90;;;;;;5029550;28;20148;-72
2021/10/30 04:07:00;;;;;;;37.88;23.85;;;8.90;99.90;;;;;;5043132;28;20052;-72
2021/10/30 04:09:27;;;;;;;35.58;22.13;;;8.90;99.90;;;;;;5048227;28;20079;-73
2021/10/30 04:11:54;;;;;;;33.45;21.77;;;8.90;99.90;;;;;;5046930;28;20060;-72
2021/10/30 04:14:21;;;;;;;32.80;21.73;;;8.90;99.90;;;;;;5030549;28;20037;-70
2021/10/30 04:16:49;;;;;;;32.78;21.70;;;8.80;99.90;;;;;;5031064;28;20049;-70
2021/10/30 04:19:15;;;;;;;37.30;23.42;;;8.80;99.90;;;;;;5031283;28;20045;-72
2021/10/30 04:21:43;;;;;;;36.30;22.38;;;8.70;99.90;;;;;;5031523;28;20057;-72
2021/10/30 04:24:10;;;;;;;41.47;24.88;;;8.60;99.90;;;;;;5049783;28;20839;-72
2021/10/30 04:26:38;;;;;;;38.20;22.55;;;8.60;99.90;;;;;;5047945;28;20059;-72
2021/10/30 04:29:04;;;;;;;38.20;22.00;;;8.50;99.90;;;;;;5031911;28;20440;-72
2021/10/30 04:31:31;;;;;;;36.63;21.67;;;8.50;99.90;;;;;;5030996;28;20044;-72
2021/10/30 04:34:02;;;;;;;32.17;21.90;;;8.60;99.90;;;;;;5048803;28;20060;-71
2021/10/30 04:36:31;;;;;;;33.72;20.98;;;8.60;99.90;;;;;;5013853;28;20079;-72
2021/10/30 04:38:59;;;;;;;35.55;22.92;;;8.60;99.90;;;;;;5029797;28;20152;-71
2021/10/30 04:41:27;;;;;;;36.03;23.08;;;8.60;99.90;;;;;;5047668;28;20408;-73
2021/10/30 04:43:54;;;;;;;32.70;22.45;;;8.60;99.90;;;;;;5048294;28;20056;-72
2021/10/30 04:46:22;;;;;;;33.20;21.20;;;8.60;99.90;;;;;;5047469;28;20057;-72
2021/10/30 04:48:49;;;;;;;34.38;21.80;;;8.50;99.90;;;;;;5028953;28;20053;-72
2021/10/30 04:51:16;;;;;;;35.13;21.88;;;8.50;99.90;;;;;;5038594;28;20049;-72
2021/10/30 04:53:44;;;;;;;35.70;22.55;;;8.40;99.90;;;;;;5046300;28;20233;-72
2021/10/30 04:56:11;;;;;;;35.53;22.70;;;8.40;99.90;;;;;;5026805;28;20389;-73
2021/10/30 04:58:43;;;;;;;38.17;23.38;;;8.40;99.90;;;;;;5027052;28;20057;-71
2021/10/30 05:01:18;;;;;;;38.88;21.98;;;8.40;99.90;;;;;;5029091;28;20048;-73
2021/10/30 05:03:46;;;;;;;30.48;20.80;;;8.40;99.90;;;;;;5046525;28;20102;-72
2021/10/30 05:06:12;;;;;;;31.95;20.75;;;8.40;99.90;;;;;;5025273;28;20044;-72
2021/10/30 05:08:39;;;;;;;34.33;21.13;;;8.50;99.90;;;;;;5011508;28;20511;-73
2021/10/30 05:11:07;;;;;;;33.67;20.30;;;8.60;99.90;;;;;;5027003;28;20337;-73
2021/10/30 05:13:35;;;;;;;29.30;18.98;;;8.60;99.90;;;;;;5029575;28;20491;-72
2021/10/30 05:16:02;;;;;;;30.23;19.63;;;8.60;99.90;;;;;;5046382;28;20099;-74
2021/10/30 05:18:29;;;;;;;30.83;19.33;;;8.70;99.90;;;;;;5028963;28;20270;-71
2021/10/30 05:20:56;;;;;;;31.05;18.92;;;8.70;99.90;;;;;;5010576;28;20518;-73
2021/10/30 05:23:23;;;;;;;27.80;18.88;;;8.70;99.90;;;;;;5012720;28;20106;-73
2021/10/30 05:25:50;;;;;;;30.85;19.40;;;8.70;99.90;;;;;;5028328;28;20365;-73
2021/10/30 05:28:21;;;;;;;26.33;19.73;;;8.70;99.90;;;;;;5046891;28;20045;-73
2021/10/30 05:30:51;;;;;;;25.92;18.13;;;8.80;99.90;;;;;;5061132;28;20107;-73
2021/10/30 05:33:18;;;;;;;29.48;19.58;;;8.80;99.90;;;;;;5040202;28;20419;-72
2021/10/30 05:36:05;;;;;;;;;;;8.80;99.90;;;;;;5027694;28;20107;-73
2021/10/30 05:38:47;;;;;;;30.23;19.38;;;8.80;99.90;;;;;;5033583;28;20299;-73
2021/10/30 05:41:16;;;;;;;28.55;19.15;;;8.80;99.90;;;;;;5011435;28;20048;-73
2021/10/30 05:43:46;;;;;;;25.48;18.52;;;8.80;99.90;;;;;;5044536;28;20076;-73
2021/10/30 05:46:13;;;;;;;27.08;19.80;;;8.80;99.90;;;;;;5027934;28;20059;-73
2021/10/30 05:48:40;;;;;;;26.58;19.63;;;8.90;99.90;;;;;;5028781;28;20739;-73
2021/10/30 05:51:11;;;;;;;27.65;19.38;;;8.80;99.90;;;;;;5020511;28;20337;-73
2021/10/30 05:53:40;;;;;;;27.85;19.60;;;8.90;99.90;;;;;;5046320;28;20052;-73
2021/10/30 05:56:07;;;;;;;24.88;18.90;;;8.90;99.90;;;;;;5044475;28;20059;-73
2021/10/30 05:58:34;;;;;;;24.80;19.00;;;9.00;99.90;;;;;;5041072;28;20068;-73
2021/10/30 06:01:01;;;;;;;24.63;17.95;;;9.00;99.90;;;;;;5027469;28;20080;-72
2021/10/30 06:03:29;;;;;;;27.75;20.17;;;9.00;99.90;;;;;;5027928;28;20495;-72
2021/10/30 06:05:56;;;;;;;29.92;20.75;;;8.90;99.90;;;;;;5042953;28;20049;-72
2021/10/30 06:08:23;;;;;;;31.77;21.55;;;8.90;99.90;;;;;;5044050;28;20045;-73
2021/10/30 06:10:50;;;;;;;33.45;22.38;;;8.70;99.90;;;;;;5011207;28;20624;-73
2021/10/30 06:13:17;;;;;;;32.50;21.23;;;8.50;99.90;;;;;;5046115;28;20053;-72
2021/10/30 06:15:44;;;;;;;33.65;22.27;;;8.40;99.90;;;;;;5046424;28;20076;-73
2021/10/30 06:18:11;;;;;;;30.52;20.95;;;8.30;99.90;;;;;;5046352;28;20653;-72
2021/10/30 06:20:38;;;;;;;35.33;21.90;;;8.30;99.90;;;;;;5034281;28;20048;-72
2021/10/30 06:23:05;;;;;;;32.58;22.65;;;8.20;99.90;;;;;;5008698;28;20348;-72
2021/10/30 06:25:32;;;;;;;33.53;22.00;;;8.20;99.90;;;;;;5043942;28;20056;-72
2021/10/30 06:27:58;;;;;;;34.97;22.73;;;8.10;99.90;;;;;;5050457;28;20060;-71
2021/10/30 06:30:25;;;;;;;36.03;22.85;;;8.10;99.90;;;;;;5048372;28;20095;-71
2021/10/30 06:32:52;;;;;;;38.60;23.02;;;8.10;99.90;;;;;;5029217;28;20341;-72
2021/10/30 06:35:19;;;;;;;34.28;21.92;;;8.10;99.90;;;;;;5047597;28;20127;-73
2021/10/30 06:37:47;;;;;;;34.22;22.65;;;8.10;99.90;;;;;;5050385;28;20103;-70
2021/10/30 06:40:14;;;;;;;38.65;22.60;;;8.10;99.90;;;;;;5043872;28;20181;-72
2021/10/30 06:42:42;;;;;;;35.47;21.83;;;8.10;99.90;;;;;;5050678;28;20056;-72
2021/10/30 06:45:09;;;;;;;32.78;19.45;;;8.00;99.90;;;;;;5030413;28;20399;-71
2021/10/30 06:47:36;;;;;;;31.02;20.05;;;8.10;99.90;;;;;;5031129;28;20041;-71
2021/10/30 06:50:07;;;;;;;35.75;21.63;;;8.10;99.90;;;;;;5049161;28;20503;-71
2021/10/30 06:52:37;;;;;;;34.13;21.95;;;8.10;99.90;;;;;;5013165;28;20049;-71
2021/10/30 06:55:07;;;;;;;34.50;21.20;;;8.20;99.90;;;;;;5029656;28;20094;-72
2021/10/30 06:57:34;;;;;;;33.70;21.85;;;8.20;99.90;;;;;;5042016;28;20052;-72
2021/10/30 07:00:02;;;;;;;31.98;20.65;;;8.20;99.90;;;;;;5049200;28;20517;-71
2021/10/30 07:02:29;;;;;;;28.17;19.90;;;8.30;99.90;;;;;;5015072;28;20075;-72
2021/10/30 07:04:58;;;;;;;27.08;18.70;;;8.40;99.90;;;;;;5048912;28;20060;-72
2021/10/30 07:07:25;;;;;;;27.38;17.75;;;8.40;99.90;;;;;;5045812;28;20048;-72
2021/10/30 07:09:59;;;;;;;24.08;16.92;;;8.40;99.90;;;;;;5030366;28;20053;-72
2021/10/30 07:12:31;;;;;;;20.80;15.77;;;8.50;99.90;;;;;;5047813;28;20045;-72
2021/10/30 07:15:03;;;;;;;24.65;18.20;;;8.70;99.90;;;;;;5031324;28;21002;-71
2021/10/30 07:17:30;;;;;;;21.48;16.35;;;8.70;99.90;;;;;;5031002;28;20307;-74
2021/10/30 07:19:57;;;;;;;22.13;18.58;;;8.60;99.90;;;;;;5048867;28;20053;-72
2021/10/30 07:22:24;;;;;;;21.88;18.55;;;8.60;99.90;;;;;;5040593;28;20084;-72
2021/10/30 07:24:51;;;;;;;24.13;18.25;;;8.60;99.90;;;;;;5030832;28;20061;-73
2021/10/30 07:27:18;;;;;;;23.90;18.40;;;8.60;99.90;;;;;;5014549;28;20132;-73
2021/10/30 07:29:47;;;;;;;24.02;18.45;;;8.60;99.90;;;;;;5014657;28;20533;-73
2021/10/30 07:32:18;;;;;;;21.08;17.73;;;8.70;99.90;;;;;;5030699;28;20079;-73
2021/10/30 07:34:45;;;;;;;21.48;18.77;;;8.70;99.90;;;;;;5031666;28;20710;-73
2021/10/30 07:37:12;;;;;;;19.98;17.05;;;8.70;99.90;;;;;;5030026;28;20068;-72
2021/10/30 07:39:38;;;;;;;21.40;17.92;;;8.80;99.90;;;;;;5030429;28;20048;-73
2021/10/30 07:42:06;;;;;;;19.90;17.80;;;8.90;99.90;;;;;;5048042;28;20243;-72
2021/10/30 07:44:41;;;;;;;20.65;17.58;;;8.90;99.90;;;;;;5030650;28;20041;-73
2021/10/30 07:47:08;;;;;;;24.00;18.15;;;9.00;99.90;;;;;;5046845;28;20095;-72
2021/10/30 07:49:35;;;;;;;22.17;18.35;;;8.90;99.90;;;;;;5013193;28;20304;-74
2021/10/30 07:52:04;;;;;;;22.20;18.75;;;9.00;99.90;;;;;;5046398;28;20053;-72
2021/10/30 07:54:31;;;;;;;19.75;17.48;;;9.00;99.90;;;;;;5013515;28;20076;-72
2021/10/30 07:56:58;;;;;;;22.58;18.05;;;9.00;99.90;;;;;;5040023;28;20046;-73
2021/10/30 07:59:25;;;;;;;20.05;17.65;;;9.00;99.90;;;;;;5034091;28;20045;-73
2021/10/30 08:01:52;;;;;;;18.67;16.50;;;9.10;99.90;;;;;;5028878;28;20111;-72
2021/10/30 08:04:20;;;;;;;19.40;17.42;;;9.10;99.90;;;;;;5042215;28;20552;-73
2021/10/30 08:06:47;;;;;;;23.48;18.17;;;9.20;99.90;;;;;;5047781;28;20107;-73
2021/10/30 08:09:14;;;;;;;20.17;17.70;;;9.20;99.90;;;;;;5047130;28;20072;-74
2021/10/30 08:11:41;;;;;;;28.10;18.65;;;9.20;99.90;;;;;;5047342;28;20222;-73
2021/10/30 08:14:08;;;;;;;19.92;17.85;;;9.20;99.90;;;;;;5030421;28;20484;-72
2021/10/30 08:16:35;;;;;;;20.88;17.42;;;9.30;99.90;;;;;;5042890;28;20053;-73
2021/10/30 08:19:01;;;;;;;21.58;18.13;;;9.20;99.90;;;;;;5027719;28;20150;-73
2021/10/30 08:21:28;;;;;;;19.30;16.58;;;9.20;99.90;;;;;;5047929;28;20186;-73
2021/10/30 08:23:57;;;;;;;20.00;16.45;;;9.10;99.90;;;;;;5027355;28;20067;-71
2021/10/30 08:26:24;;;;;;;21.67;17.85;;;9.10;99.90;;;;;;5045578;28;20076;-73
2021/10/30 08:28:50;;;;;;;19.05;17.20;;;9.10;99.90;;;;;;5028647;28;20110;-73
2021/10/30 08:31:18;;;;;;;19.55;17.55;;;9.20;99.90;;;;;;5026203;28;20045;-72
2021/10/30 08:33:45;;;;;;;21.92;17.45;;;9.20;99.90;;;;;;5006682;28;20060;-74
2021/10/30 08:36:12;;;;;;;21.17;18.67;;;9.20;99.90;;;;;;5043767;28;20495;-73
2021/10/30 08:38:38;;;;;;;20.98;17.60;;;9.20;99.90;;;;;;5006851;28;20064;-72
2021/10/30 08:41:05;;;;;;;18.70;16.75;;;9.20;99.90;;;;;;5026390;28;20049;-72
2021/10/30 08:43:33;;;;;;;18.63;16.73;;;9.20;99.90;;;;;;5026101;28;20054;-74
2021/10/30 08:46:00;;;;;;;20.17;16.77;;;9.20;99.90;;;;;;5016489;28;20049;-72
2021/10/30 08:48:31;;;;;;;18.40;16.45;;;9.30;99.90;;;;;;5000637;28;20062;-72
2021/10/30 08:51:03;;;;;;;20.27;17.42;;;9.40;99.90;;;;;;4989020;28;20058;-73
2021/10/30 08:53:30;;;;;;;18.52;16.33;;;9.40;99.90;;;;;;5024916;28;20132;-72
2021/10/30 08:56:03;;;;;;;22.02;16.88;;;9.50;99.90;;;;;;5000005;28;20054;-72
2021/10/30 08:58:32;;;;;;;18.33;16.42;;;9.60;99.90;;;;;;5009679;28;20041;-74
2021/10/30 09:01:03;;;;;;;20.60;18.08;;;9.60;99.90;;;;;;5007957;28;20107;-74
2021/10/30 09:03:31;;;;;;;20.77;18.35;;;9.70;99.90;;;;;;5057804;28;20118;-73
2021/10/30 09:05:59;;;;;;;22.27;19.42;;;9.70;99.90;;;;;;5024494;28;20451;-73
2021/10/30 09:08:27;;;;;;;25.30;20.58;;;9.60;99.90;;;;;;5026251;28;20527;-73
2021/10/30 09:11:09;;;;;;;24.27;20.70;;;9.60;99.90;;;;;;5026814;28;20080;-72
2021/10/30 09:13:37;;;;;;;22.63;20.23;;;9.60;99.90;;;;;;5022785;28;20049;-72
2021/10/30 09:16:05;;;;;;;22.50;20.02;;;9.50;99.90;;;;;;5030817;28;20323;-73
2021/10/30 09:18:38;;;;;;;27.98;21.50;;;9.50;99.90;;;;;;5025921;28;20198;-71
2021/10/30 09:21:07;;;;;;;27.75;21.48;;;9.40;99.90;;;;;;5025221;28;20056;-71
2021/10/30 09:23:43;;;;;;;25.90;20.17;;;9.50;99.90;;;;;;5014113;28;20053;-73
2021/10/30 09:26:25;;;;;;;28.70;21.10;;;9.40;99.90;;;;;;5023144;28;20051;-73
2021/10/30 09:28:57;;;;;;;26.98;21.63;;;9.40;99.90;;;;;;5032872;28;20057;-73
2021/10/30 09:31:25;;;;;;;26.23;21.13;;;9.40;99.90;;;;;;5022670;28;20056;-73
2021/10/30 09:33:54;;;;;;;29.60;22.20;;;9.30;99.90;;;;;;5022858;28;20049;-73
2021/10/30 09:36:22;;;;;;;28.58;21.67;;;9.30;99.90;;;;;;5007251;28;20037;-74
2021/10/30 09:39:01;;;;;;;30.42;21.75;;;9.30;99.90;;;;;;5023538;28;20080;-71
2021/10/30 09:41:37;;;;;;;32.45;23.77;;;9.30;99.90;;;;;;5021617;28;20219;-73
2021/10/30 09:44:07;;;;;;;32.58;23.92;;;9.20;99.90;;;;;;5026655;28;20059;-72
2021/10/30 09:46:52;;;;;;;28.60;22.05;;;9.20;99.90;;;;;;5032912;28;20056;-73
2021/10/30 09:49:26;;;;;;;33.90;23.80;;;9.30;99.90;;;;;;5037327;28;20092;-73
2021/10/30 09:51:54;;;;;;;34.80;24.55;;;9.20;99.90;;;;;;5024939;28;20186;-72
2021/10/30 09:54:32;;;;;;;31.67;22.63;;;9.20;99.90;;;;;;5007371;28;20056;-71
2021/10/30 09:57:00;;;;;;;31.20;22.55;;;9.20;99.90;;;;;;5019447;28;20045;-73
2021/10/30 09:59:27;;;;;;;26.83;22.25;;;9.20;99.90;;;;;;5023825;28;20076;-73
2021/10/30 10:01:54;;;;;;;30.30;22.33;;;9.30;99.90;;;;;;5023260;28;20119;-71
2021/10/30 10:04:21;;;;;;;32.50;23.65;;;9.20;99.90;;;;;;5027845;28;20515;-73
2021/10/30 10:06:50;;;;;;;32.15;21.08;;;9.20;99.90;;;;;;5025378;28;20060;-73
2021/10/30 10:09:17;;;;;;;32.55;23.48;;;9.30;99.90;;;;;;5039413;28;20053;-74
2021/10/30 10:11:51;;;;;;;32.92;23.13;;;9.20;99.90;;;;;;5026875;28;20080;-71
2021/10/30 10:14:22;;;;;;;31.20;23.25;;;9.30;99.90;;;;;;5029046;28;20436;-72
2021/10/30 10:16:50;;;;;;;33.08;23.70;;;9.30;99.90;;;;;;5029086;28;20197;-73
2021/10/30 10:19:21;;;;;;;32.40;24.90;;;9.30;99.90;;;;;;5027577;28;20504;-73
2021/10/30 10:21:52;;;;;;;33.55;25.17;;;9.30;99.90;;;;;;5027351;28;20335;-71
2021/10/30 10:24:26;;;;;;;39.13;25.45;;;9.30;99.90;;;;;;5027050;28;20057;-73
2021/10/30 10:26:57;;;;;;;33.17;22.88;;;9.30;99.90;;;;;;5027916;28;20053;-72
2021/10/30 10:29:30;;;;;;;31.38;22.60;;;9.30;99.90;;;;;;5027359;28;20044;-73
2021/10/30 10:31:59;;;;;;;35.58;24.27;;;9.40;99.90;;;;;;5022859;28;20054;-70
2021/10/30 10:34:30;;;;;;;36.85;25.23;;;9.40;99.90;;;;;;5033784;28;20141;-73
2021/10/30 10:37:12;;;;;;;34.95;24.58;;;9.50;99.90;;;;;;5024746;28;20049;-71
2021/10/30 10:39:40;;;;;;;32.00;24.60;;;9.50;99.90;;;;;;5034361;28;20045;-73
2021/10/30 10:42:11;;;;;;;35.80;25.60;;;9.50;99.90;;;;;;5028006;28;20045;-72
2021/10/30 10:44:43;;;;;;;37.55;27.65;;;9.50;99.90;;;;;;5029136;28;20065;-71
2021/10/30 10:47:31;;;;;;;40.38;28.35;;;9.50;99.90;;;;;;5027034;28;20061;-72
2021/10/30 10:50:10;;;;;;;37.00;25.48;;;9.60;99.90;;;;;;5027434;28;20049;-72
2021/10/30 10:53:05;;;;;;;39.70;27.10;;;9.50;99.90;;;;;;5034387;28;20067;-70
2021/10/30 10:55:35;;;;;;;36.80;27.70;;;9.60;99.90;;;;;;5026390;28;20050;-74
2021/10/30 10:58:08;;;;;;;36.83;26.60;;;9.60;99.90;;;;;;5030922;28;20087;-74
2021/10/30 11:00:35;;;;;;;34.05;25.05;;;9.60;99.90;;;;;;5008726;28;20572;-73
2021/10/30 11:03:03;;;;;;;33.40;26.17;;;9.60;99.90;;;;;;5030408;28;20045;-72
2021/10/30 11:05:32;;;;;;;30.95;24.10;;;9.60;99.90;;;;;;5032180;28;20053;-70
2021/10/30 11:08:29;;;;;;;38.35;27.55;;;9.70;99.90;;;;;;5031024;28;20140;-71
2021/10/30 11:11:21;;;;;;;36.17;26.15;;;9.70;99.90;;;;;;5027389;28;20060;-71
2021/10/30 11:13:56;;;;;;;33.67;25.75;;;9.70;99.90;;;;;;5015115;28;20087;-70
2021/10/30 11:16:28;;;;;;;38.33;26.10;;;9.60;99.90;;;;;;5029883;28;20479;-71
2021/10/30 11:19:21;;;;;;;34.03;26.92;;;9.60;99.90;;;;;;5013484;28;20099;-73
2021/10/30 11:21:52;;;;;;;37.25;25.70;;;9.70;99.90;;;;;;5010719;28;20053;-74
2021/10/30 11:24:24;;;;;;;34.67;24.80;;;9.70;99.90;;;;;;5027395;28;20060;-71
2021/10/30 11:27:04;;;;;;;30.58;23.65;;;9.80;99.90;;;;;;5029102;28;20057;-73
2021/10/30 11:29:32;;;;;;;39.97;24.08;;;9.80;99.90;;;;;;5030381;28;20046;-72
2021/10/30 11:32:04;;;;;;;37.42;25.65;;;9.70;99.90;;;;;;5027874;28;20107;-73
2021/10/30 11:34:32;;;;;;;34.17;26.95;;;9.70;99.90;;;;;;5026887;28;20060;-72
2021/10/30 11:36:59;;;;;;;32.72;25.33;;;9.70;99.90;;;;;;5027849;28;20108;-72
2021/10/30 11:39:29;;;;;;;32.20;22.70;;;9.70;99.90;;;;;;5029220;28;20353;-73
2021/10/30 11:42:02;;;;;;;28.77;22.35;;;9.70;99.90;;;;;;5027340;28;20077;-70
2021/10/30 11:44:29;;;;;;;29.27;22.38;;;9.70;99.90;;;;;;5026410;28;20082;-72
2021/10/30 11:46:58;;;;;;;32.33;21.27;;;9.70;99.90;;;;;;5028397;28;20063;-73
2021/10/30 11:49:29;;;;;;;29.92;23.70;;;9.80;99.90;;;;;;5028503;28;20120;-71
2021/10/30 11:52:07;;;;;;;30.80;21.83;;;9.80;99.90;;;;;;5027509;28;20044;-72
2021/10/30 11:54:35;;;;;;;27.80;22.50;;;9.80;99.90;;;;;;5027339;28;20049;-73
2021/10/30 11:57:03;;;;;;;29.88;21.83;;;9.80;99.90;;;;;;5026440;28;20045;-72
2021/10/30 11:59:30;;;;;;;27.20;21.13;;;9.90;99.90;;;;;;5024825;28;20546;-72
2021/10/30 12:01:59;;;;;;;26.27;21.25;;;9.90;99.90;;;;;;5024971;28;20061;-72
2021/10/30 12:04:38;;;;;;;28.05;21.83;;;9.80;99.90;;;;;;5026104;28;20077;-72
2021/10/30 12:07:10;;;;;;;29.38;21.42;;;9.90;99.90;;;;;;5010020;28;20092;-73
2021/10/30 12:09:37;;;;;;;26.40;20.48;;;9.90;99.90;;;;;;5009536;28;20084;-73
2021/10/30 12:12:10;;;;;;;28.67;20.90;;;9.90;99.90;;;;;;5025569;28;20080;-73
2021/10/30 12:14:46;;;;;;;22.27;18.20;;;9.90;99.90;;;;;;5025631;28;20399;-73
2021/10/30 12:17:15;;;;;;;26.65;20.63;;;9.90;99.90;;;;;;5026284;28;20420;-73
2021/10/30 12:19:46;;;;;;;29.75;21.63;;;9.90;99.90;;;;;;5027205;28;20119;-74
2021/10/30 12:22:25;;;;;;;28.85;21.45;;;9.90;99.90;;;;;;5026217;28;20053;-74
2021/10/30 12:25:08;;;;;;;30.08;21.88;;;9.90;99.90;;;;;;4992978;28;20564;-74
2021/10/30 12:27:52;;;;;;;24.65;20.77;;;9.90;99.90;;;;;;5027343;28;20168;-73
2021/10/30 12:30:27;;;;;;;25.08;19.35;;;10.00;99.90;;;;;;5024981;28;20136;-74
2021/10/30 12:32:55;;;;;;;29.05;20.60;;;10.00;99.90;;;;;;5025862;28;20085;-72
2021/10/30 12:35:27;;;;;;;24.20;18.33;;;10.00;99.90;;;;;;5005907;28;20503;-74
2021/10/30 12:38:07;;;;;;;24.50;19.85;;;10.00;99.90;;;;;;5053218;28;20099;-73
2021/10/30 12:40:39;;;;;;;23.85;19.50;;;10.00;99.90;;;;;;5023920;28;20484;-72
2021/10/30 12:43:17;;;;;;;24.02;19.67;;;10.00;99.90;;;;;;5025176;28;20061;-74
2021/10/30 12:45:59;;;;;;;26.98;21.10;;;10.00;99.90;;;;;;5024754;28;20049;-74